Time;durP1;ratioP1;P1;durP2;ratioP2;P2;SDS_P1;SDS_P2;PMS_P1;PMS_P2;Temp;Humidity;BMP_temperature;BMP_pressure;BME280_temperature;BME280_humidity;BME280_pressure;Samples;Min_cycle;Max_cycle;Signal;HPM_P1;HPM_P2
2022/09/28 00:01:42;;;;;;;14.20;8.70;;;;;;;13.88;74.92;94469.38;4970613;28;20026;-85
2022/09/28 00:04:08;;;;;;;13.50;8.93;;;;;;;13.89;75.26;94473.75;4968911;28;20229;-85
2022/09/28 00:06:33;;;;;;;11.48;8.52;;;;;;;13.89;75.42;94462.13;4987857;28;20425;-85
2022/09/28 00:09:00;;;;;;;12.30;8.18;;;;;;;13.89;75.40;94454.88;4986697;28;20516;-87
2022/09/28 00:11:27;;;;;;;13.20;8.75;;;;;;;13.90;75.76;94464.59;4970095;28;20481;-86
2022/09/28 00:13:55;;;;;;;16.95;9.25;;;;;;;13.82;76.01;94456.81;4969821;28;20449;-87
2022/09/28 00:16:22;;;;;;;13.52;8.77;;;;;;;13.83;76.26;94459.28;4985519;28;20113;-85
2022/09/28 00:18:49;;;;;;;24.20;9.38;;;;;;;13.74;76.07;94459.78;4986413;28;20030;-87
2022/09/28 00:21:17;;;;;;;11.27;8.30;;;;;;;13.52;76.87;94461.00;4985697;28;20503;-86
2022/09/28 00:26:27;;;;;;;14.30;9.15;;;;;;;13.53;77.40;94462.66;4972007;28;20037;-86
2022/09/28 00:28:59;;;;;;;11.52;8.02;;;;;;;13.55;76.88;94457.03;4987563;28;20042;-85
2022/09/28 00:31:27;;;;;;;14.27;9.13;;;;;;;13.55;77.01;94452.47;4986376;28;20022;-86
2022/09/28 00:33:55;;;;;;;15.13;9.10;;;;;;;13.50;77.04;94449.59;4986031;28;20045;-86
2022/09/28 00:36:21;;;;;;;10.98;7.70;;;;;;;13.53;76.70;94445.66;4970818;28;20045;-84
2022/09/28 00:38:48;;;;;;;13.73;8.30;;;;;;;13.52;76.95;94455.63;4969774;28;20108;-85
2022/09/28 00:41:13;;;;;;;11.07;7.80;;;;;;;13.46;76.67;94459.97;4970038;28;20045;-85
2022/09/28 00:43:39;;;;;;;10.18;8.23;;;;;;;13.48;76.75;94460.59;4969299;28;20037;-84
2022/09/28 00:46:30;;;;;;;10.20;7.35;;;;;;;13.51;76.86;94458.53;4986374;28;20354;-86
2022/09/28 00:49:03;;;;;;;10.93;7.80;;;;;;;13.54;76.37;94450.00;4985847;28;20033;-85
2022/09/28 00:51:29;;;;;;;11.35;8.18;;;;;;;13.54;75.67;94450.00;4968142;28;20022;-85
2022/09/28 00:53:55;;;;;;;12.70;7.85;;;;;;;13.54;74.41;94455.41;4953749;28;20514;-86
2022/09/28 00:56:20;;;;;;;9.80;7.57;;;;;;;13.51;74.30;94461.22;4968684;28;20026;-87
2022/09/28 00:58:47;;;;;;;10.80;7.47;;;;;;;13.54;74.41;94455.41;4985605;28;20041;-85
2022/09/28 01:01:12;;;;;;;8.07;6.18;;;;;;;13.39;73.55;94458.38;4984986;28;20030;-86
2022/09/28 01:03:44;;;;;;;8.93;6.50;;;;;;;13.20;73.20;94456.41;4985429;28;20425;-86
2022/09/28 01:06:10;;;;;;;9.60;6.97;;;;;;;13.29;72.61;94448.09;4970458;28;20022;-87
2022/09/28 01:08:36;;;;;;;11.98;6.80;;;;;;;13.34;73.05;94456.34;4984633;28;20038;-86
2022/09/28 01:11:02;;;;;;;11.20;6.63;;;;;;;13.27;72.74;94466.34;4970100;28;20034;-86
2022/09/28 01:13:27;;;;;;;8.15;6.30;;;;;;;13.29;72.29;94469.63;4984497;28;20038;-86
2022/09/28 01:16:27;;;;;;;16.98;7.57;;;;;;;13.25;72.69;94465.72;4985938;28;20481;-86
2022/09/28 01:19:02;;;;;;;7.45;6.10;;;;;;;13.26;73.19;94464.69;4971796;28;20445;-87
2022/09/28 01:21:27;;;;;;;9.55;6.78;;;;;;;13.22;73.03;94470.50;4986008;28;20101;-86
2022/09/28 01:24:20;;;;;;;9.55;6.45;;;;;;;13.20;72.99;94461.81;4969662;28;20030;-87
2022/09/28 01:26:52;;;;;;;9.15;5.95;;;;;;;13.18;73.01;94468.47;4984581;28;20120;-86
2022/09/28 01:29:29;;;;;;;8.18;6.22;;;;;;;13.05;72.95;94470.19;4985297;28;20192;-86
2022/09/28 01:32:16;;;;;;;7.15;5.55;;;;;;;12.97;73.68;94471.28;4970003;28;20138;-87
2022/09/28 01:34:46;;;;;;;13.90;6.72;;;;;;;12.79;73.65;94463.09;4984261;28;20117;-85
2022/09/28 01:37:12;;;;;;;9.63;6.10;;;;;;;12.79;73.59;94463.09;4970053;28;20398;-86
2022/09/28 01:39:43;;;;;;;8.10;6.18;;;;;;;12.59;74.87;94456.75;4983891;28;20037;-86
2022/09/28 01:42:12;;;;;;;8.82;6.13;;;;;;;12.69;74.39;94461.69;4969405;28;20033;-85
2022/09/28 01:44:39;;;;;;;8.75;6.20;;;;;;;12.61;74.50;94470.00;4952433;28;20033;-85
2022/09/28 01:47:07;;;;;;;8.23;6.25;;;;;;;12.67;74.12;94469.13;4969130;28;20034;-88
2022/09/28 01:49:44;;;;;;;7.70;6.03;;;;;;;12.70;74.29;94468.72;4954866;28;20037;-85
2022/09/28 01:52:12;;;;;;;7.70;5.65;;;;;;;12.71;74.26;94469.53;4971932;28;20025;-87
2022/09/28 01:55:01;;;;;;;6.85;5.10;;;;;;;12.69;73.64;94468.91;4988850;28;20029;-84
2022/09/28 01:57:38;;;;;;;6.30;4.90;;;;;;;12.69;73.86;94467.06;4993899;28;20259;-85
2022/09/28 02:00:05;;;;;;;8.95;5.40;;;;;;;12.64;74.21;94466.88;4988488;28;20246;-87
2022/09/28 02:02:34;;;;;;;7.57;5.10;;;;;;;12.64;73.44;94466.88;4972318;28;20529;-87
2022/09/28 02:05:05;;;;;;;7.10;5.20;;;;;;;12.57;73.67;94476.84;4971827;28;20037;-86
2022/09/28 02:07:52;;;;;;;6.63;4.85;;;;;;;12.58;73.19;94478.50;5005171;28;20027;-87
2022/09/28 02:10:19;;;;;;;6.60;4.80;;;;;;;12.54;73.05;94474.59;4974090;28;20517;-87
2022/09/28 02:12:51;;;;;;;6.38;4.90;;;;;;;12.47;73.54;94470.06;4955953;28;20031;-85
2022/09/28 02:15:22;;;;;;;6.22;4.50;;;;;;;12.54;73.48;94486.16;4971785;28;20026;-87
2022/09/28 02:17:48;;;;;;;6.35;4.90;;;;;;;12.58;73.28;94482.03;4971928;28;20030;-85
2022/09/28 02:20:13;;;;;;;6.22;4.60;;;;;;;12.57;73.22;94471.47;4972154;28;20030;-86
2022/09/28 02:22:42;;;;;;;6.03;4.75;;;;;;;12.63;72.55;94477.84;4954509;28;20100;-87
2022/09/28 02:25:17;;;;;;;5.75;4.10;;;;;;;12.60;72.84;94477.25;4988525;28;20037;-86
2022/09/28 02:27:42;;;;;;;6.38;4.68;;;;;;;12.61;72.16;94473.53;4971456;28;20050;-85
2022/09/28 02:30:08;;;;;;;5.35;4.40;;;;;;;12.58;72.67;94467.75;4989075;28;20073;-85
2022/09/28 02:32:38;;;;;;;4.95;3.92;;;;;;;12.57;71.99;94479.53;4971402;28;20042;-86
2022/09/28 02:35:10;;;;;;;5.35;4.00;;;;;;;12.49;71.69;94478.72;4973099;28;20022;-85
2022/09/28 02:37:35;;;;;;;5.60;4.60;;;;;;;12.44;72.46;94475.03;4973266;28;20200;-85
2022/09/28 02:40:01;;;;;;;6.18;4.35;;;;;;;12.37;72.86;94485.81;4954586;28;20077;-85
2022/09/28 02:42:28;;;;;;;6.05;4.78;;;;;;;12.39;73.13;94475.69;4988170;28;20120;-86
2022/09/28 02:45:15;;;;;;;6.47;4.82;;;;;;;12.38;73.07;94470.50;4970282;28;20030;-86
2022/09/28 02:48:02;;;;;;;6.13;4.80;;;;;;;12.34;73.81;94475.47;4988703;28;20096;-86
2022/09/28 02:50:56;;;;;;;6.68;4.90;;;;;;;12.38;73.44;94471.31;4987741;28;20026;-87
2022/09/28 02:53:46;;;;;;;6.90;5.00;;;;;;;12.34;73.93;94479.00;4988416;28;20057;-87
2022/09/28 02:56:25;;;;;;;8.18;4.93;;;;;;;12.33;73.55;94474.66;4988907;28;20037;-86
2022/09/28 02:59:19;;;;;;;7.55;4.68;;;;;;;12.35;73.83;94480.66;4986912;28;20030;-85
2022/09/28 03:02:00;;;;;;;6.28;4.22;;;;;;;12.34;73.52;94492.44;4986770;28;20042;-86
2022/09/28 03:04:39;;;;;;;6.80;5.13;;;;;;;12.31;73.53;94492.03;4987587;28;20529;-86
2022/09/28 03:07:25;;;;;;;6.47;4.32;;;;;;;12.28;73.75;94498.66;4954609;28;20030;-86
2022/09/28 03:10:00;;;;;;;6.60;4.70;;;;;;;12.30;73.97;94503.84;4972980;28;20062;-86
2022/09/28 03:12:28;;;;;;;7.38;4.97;;;;;;;12.31;74.05;94502.78;4988771;28;20041;-87
2022/09/28 03:15:18;;;;;;;8.15;4.28;;;;;;;12.37;73.82;94501.94;4954261;28;20117;-85
2022/09/28 03:17:44;;;;;;;7.13;4.18;;;;;;;12.40;73.66;94501.53;4971994;28;20513;-86
2022/09/28 03:20:10;;;;;;;6.97;4.35;;;;;;;12.36;73.17;94508.38;4970113;28;20033;-86
2022/09/28 03:22:36;;;;;;;7.05;4.70;;;;;;;12.35;73.69;94507.53;4970941;28;20084;-86
2022/09/28 03:25:01;;;;;;;6.00;4.05;;;;;;;12.30;73.94;94517.28;4988360;28;20030;-85
2022/09/28 03:27:26;;;;;;;6.30;3.92;;;;;;;12.29;74.34;94510.22;4987427;28;20461;-86
2022/09/28 03:29:52;;;;;;;7.43;3.70;;;;;;;12.34;74.29;94516.66;4970985;28;20486;-86
2022/09/28 03:32:17;;;;;;;7.68;4.72;;;;;;;12.35;73.89;94522.84;4969302;28;20031;-87
2022/09/28 03:34:43;;;;;;;9.00;4.70;;;;;;;12.44;74.22;94518.06;4986980;28;20026;-85
2022/09/28 03:37:08;;;;;;;7.88;4.72;;;;;;;12.44;73.97;94516.22;4989016;28;20450;-86
2022/09/28 03:39:33;;;;;;;8.15;4.82;;;;;;;12.43;74.41;94522.59;4986732;28;20755;-88
2022/09/28 03:41:59;;;;;;;8.05;4.70;;;;;;;12.44;74.39;94518.91;4970032;28;20481;-86
2022/09/28 03:44:25;;;;;;;9.35;6.05;;;;;;;12.47;74.36;94518.47;4986256;28;20489;-86
2022/09/28 03:46:50;;;;;;;9.20;6.15;;;;;;;12.46;74.74;94500.66;4986888;28;20089;-86
2022/09/28 03:49:16;;;;;;;12.63;5.90;;;;;;;12.52;74.58;94514.31;4969055;28;20041;-87
2022/09/28 03:51:41;;;;;;;8.85;5.57;;;;;;;12.57;74.40;94512.66;4986918;28;20414;-87
2022/09/28 03:54:06;;;;;;;9.70;5.80;;;;;;;12.59;74.77;94517.81;4986383;28;20452;-86
2022/09/28 03:56:32;;;;;;;8.27;5.40;;;;;;;12.60;74.84;94514.91;4986348;28;20053;-86
2022/09/28 03:58:57;;;;;;;10.57;6.20;;;;;;;12.64;75.00;94523.38;4985694;28;20026;-86
2022/09/28 04:01:23;;;;;;;10.10;5.82;;;;;;;12.68;74.70;94519.22;4985722;28;20026;-87
2022/09/28 04:03:52;;;;;;;13.15;6.82;;;;;;;12.68;74.38;94519.22;4970460;28;20097;-87
2022/09/28 04:06:18;;;;;;;10.70;5.95;;;;;;;12.63;74.93;94524.41;4969308;28;20034;-86
2022/09/28 04:08:43;;;;;;;9.23;5.88;;;;;;;12.66;75.08;94520.47;4986714;28;20032;-86
2022/09/28 04:11:09;;;;;;;12.95;5.88;;;;;;;12.65;75.62;94516.97;4952349;28;20026;-86
2022/09/28 04:13:34;;;;;;;10.18;5.55;;;;;;;12.72;75.44;94525.81;4986441;28;20473;-86
2022/09/28 04:16:00;;;;;;;10.95;5.65;;;;;;;12.77;74.70;94521.69;4985402;28;20089;-86
2022/09/28 04:18:25;;;;;;;7.85;5.95;;;;;;;12.81;74.37;94512.13;4986806;28;20124;-87
2022/09/28 04:21:07;;;;;;;9.30;5.57;;;;;;;12.81;74.11;94523.75;4969627;28;20061;-87
2022/09/28 04:23:34;;;;;;;11.20;6.28;;;;;;;12.81;74.05;94515.66;4969682;28;20031;-86
2022/09/28 04:25:59;;;;;;;9.80;5.40;;;;;;;12.80;74.34;94523.94;4986650;28;20027;-87
2022/09/28 04:31:16;;;;;;;9.25;6.10;;;;;;;12.82;73.87;94519.16;4986292;28;20096;-86
2022/09/28 04:33:41;;;;;;;11.07;6.50;;;;;;;12.65;74.54;94525.03;4985596;28;20088;-85
2022/09/28 04:36:08;;;;;;;15.10;6.18;;;;;;;12.57;75.25;94522.59;4954750;28;20030;-86
2022/09/28 04:38:33;;;;;;;11.45;6.07;;;;;;;12.64;75.04;94526.06;4969544;28;20044;-87
2022/09/28 04:40:59;;;;;;;8.82;5.53;;;;;;;12.64;75.07;94534.13;4984958;28;20409;-86
2022/09/28 04:43:25;;;;;;;8.63;5.70;;;;;;;12.71;74.52;94524.19;4953892;28;20034;-86
2022/09/28 04:45:50;;;;;;;10.48;5.63;;;;;;;12.69;74.70;94526.25;4986369;28;20041;-86
2022/09/28 04:48:16;;;;;;;10.48;5.25;;;;;;;12.77;74.76;94521.69;4987245;28;20502;-86
2022/09/28 04:50:41;;;;;;;12.20;6.10;;;;;;;12.81;74.66;94523.75;4968720;28;20026;-86
2022/09/28 04:53:07;;;;;;;9.18;5.75;;;;;;;12.86;74.20;94531.16;4969351;28;20073;-86
2022/09/28 04:55:32;;;;;;;9.93;6.07;;;;;;;12.88;74.06;94530.94;4984992;28;20034;-86
2022/09/28 04:58:01;;;;;;;11.00;5.50;;;;;;;12.95;74.21;94524.50;4985309;28;20038;-85
2022/09/28 05:00:28;;;;;;;8.32;5.18;;;;;;;13.06;74.28;94528.38;4969976;28;20022;-87
2022/09/28 05:02:54;;;;;;;8.05;5.88;;;;;;;13.05;73.41;94526.72;4968651;28;20521;-86
2022/09/28 05:05:20;;;;;;;8.20;5.45;;;;;;;13.16;73.18;94527.91;4969692;28;20018;-86
2022/09/28 05:07:45;;;;;;;9.15;5.60;;;;;;;13.13;73.36;94528.34;4984530;28;20456;-86
2022/09/28 05:10:11;;;;;;;7.20;5.18;;;;;;;13.19;73.22;94526.63;4985578;28;20022;-86
2022/09/28 05:12:36;;;;;;;7.47;4.90;;;;;;;13.29;72.91;94526.16;4984772;28;20034;-87
2022/09/28 05:15:02;;;;;;;7.18;5.45;;;;;;;13.35;71.55;94523.44;4986732;28;20026;-87
2022/09/28 05:17:27;;;;;;;7.68;5.45;;;;;;;13.43;71.89;94522.34;4969105;28;20043;-87
2022/09/28 05:19:52;;;;;;;8.88;5.68;;;;;;;13.41;71.58;94527.13;4968617;28;20466;-87
2022/09/28 05:22:18;;;;;;;10.15;5.90;;;;;;;13.48;71.95;94527.91;4987169;28;20022;-87
2022/09/28 05:24:45;;;;;;;10.35;6.38;;;;;;;13.67;70.98;94529.91;4970595;28;20029;-86
2022/09/28 05:27:10;;;;;;;7.65;5.40;;;;;;;13.69;70.44;94528.63;4957406;28;20030;-87
2022/09/28 05:29:36;;;;;;;6.90;5.53;;;;;;;13.84;70.05;94530.19;4972037;28;20510;-87
2022/09/28 05:32:01;;;;;;;7.35;5.35;;;;;;;13.87;70.32;94521.66;4989200;28;20052;-87
2022/09/28 05:34:27;;;;;;;7.65;5.78;;;;;;;14.03;70.65;94531.06;4956733;28;20081;-87
2022/09/28 05:36:52;;;;;;;7.65;5.15;;;;;;;14.16;69.37;94531.97;4988736;28;20030;-86
2022/09/28 05:39:17;;;;;;;6.97;4.60;;;;;;;14.21;69.25;94526.75;4973329;28;20104;-86
2022/09/28 05:41:43;;;;;;;6.55;4.47;;;;;;;14.35;67.89;94535.53;4987937;28;20460;-86
2022/09/28 05:44:08;;;;;;;5.68;4.43;;;;;;;14.43;68.28;94526.31;4990707;28;20597;-85
2022/09/28 05:46:34;;;;;;;8.50;5.05;;;;;;;14.29;68.98;94526.47;4987694;28;20029;-86
2022/09/28 05:48:59;;;;;;;6.18;4.60;;;;;;;14.50;69.01;94537.03;4990686;28;20501;-87
2022/09/28 05:51:25;;;;;;;8.35;5.25;;;;;;;14.62;69.48;94535.22;4988121;28;20054;-86
2022/09/28 05:53:53;;;;;;;7.47;4.63;;;;;;;14.82;69.23;94542.31;4956194;28;20085;-86
2022/09/28 05:56:19;;;;;;;8.40;4.38;;;;;;;15.00;68.78;94536.09;4956523;28;20041;-86
2022/09/28 05:58:44;;;;;;;8.45;5.43;;;;;;;15.07;68.41;94530.63;4987558;28;20034;-86
2022/09/28 06:01:09;;;;;;;6.85;5.22;;;;;;;15.10;68.55;94540.97;4988787;28;20038;-86
2022/09/28 06:03:35;;;;;;;6.38;4.30;;;;;;;15.15;68.75;94541.09;4987545;28;20029;-86
2022/09/28 06:06:03;;;;;;;9.77;4.55;;;;;;;15.23;68.01;94539.13;4988484;28;20022;-86
2022/09/28 06:08:30;;;;;;;5.40;4.47;;;;;;;15.03;68.43;94548.31;4987690;28;20061;-86
2022/09/28 06:10:59;;;;;;;7.78;4.25;;;;;;;14.88;69.12;94549.50;4971892;28;20042;-86
2022/09/28 06:13:26;;;;;;;6.57;4.75;;;;;;;14.63;70.52;94558.50;4971531;28;20047;-85
2022/09/28 06:15:51;;;;;;;11.07;6.78;;;;;;;14.60;71.17;94561.63;4971585;28;20105;-86
2022/09/28 06:18:17;;;;;;;12.18;6.75;;;;;;;14.67;71.92;94562.38;4989488;28;20497;-85
2022/09/28 06:20:42;;;;;;;8.75;6.15;;;;;;;14.73;71.44;94562.53;4970927;28;20026;-86
2022/09/28 06:23:09;;;;;;;7.35;5.72;;;;;;;14.79;70.93;94562.50;4988412;28;20140;-87
2022/09/28 06:25:34;;;;;;;8.85;6.00;;;;;;;14.62;71.25;94556.81;4987152;28;20412;-85
2022/09/28 06:28:04;;;;;;;9.45;6.45;;;;;;;14.56;71.77;94563.94;4989294;28;20494;-85
2022/09/28 06:30:31;;;;;;;11.25;6.03;;;;;;;14.60;71.80;94556.25;4971438;28;20183;-86
2022/09/28 06:32:57;;;;;;;13.85;5.53;;;;;;;14.68;71.25;94561.34;4971585;28;20046;-85
2022/09/28 06:35:24;;;;;;;11.15;5.60;;;;;;;14.73;71.31;94554.44;4986883;28;20019;-87
2022/09/28 06:37:50;;;;;;;7.55;5.35;;;;;;;14.85;70.99;94557.25;4970908;28;20049;-86
2022/09/28 06:40:15;;;;;;;6.15;4.53;;;;;;;14.80;70.74;94560.59;4972048;28;20409;-84
2022/09/28 06:42:40;;;;;;;7.45;5.47;;;;;;;14.77;71.18;94552.94;4986794;28;20030;-86
2022/09/28 06:45:06;;;;;;;15.18;5.82;;;;;;;14.70;72.08;94561.13;4955662;28;20031;-84
2022/09/28 06:47:32;;;;;;;9.98;6.30;;;;;;;14.65;72.26;94563.66;4987474;28;20521;-86
2022/09/28 06:49:58;;;;;;;8.88;5.80;;;;;;;14.66;71.81;94563.44;4987403;28;20022;-86
2022/09/28 06:52:24;;;;;;;9.98;5.90;;;;;;;14.66;71.86;94568.00;4971375;28;20066;-86
2022/09/28 06:54:50;;;;;;;8.55;6.35;;;;;;;14.72;72.25;94559.00;4971039;28;20081;-86
2022/09/28 06:57:15;;;;;;;9.52;7.07;;;;;;;14.66;71.54;94560.75;4971631;28;20022;-86
2022/09/28 06:59:40;;;;;;;10.18;7.70;;;;;;;14.61;72.15;94557.88;4986457;28;20041;-87
2022/09/28 07:02:09;;;;;;;8.27;6.43;;;;;;;14.65;71.91;94556.41;4987676;28;20018;-87
2022/09/28 07:04:35;;;;;;;8.88;6.45;;;;;;;14.80;73.20;94561.44;4954801;28;20034;-87
2022/09/28 07:07:00;;;;;;;17.45;6.80;;;;;;;14.87;71.35;94566.78;4971192;28;20085;-86
2022/09/28 07:09:25;;;;;;;8.80;6.00;;;;;;;14.82;71.23;94570.16;4970422;28;20096;-86
2022/09/28 07:11:52;;;;;;;9.80;7.10;;;;;;;14.79;71.30;94576.00;4987130;28;20061;-86
2022/09/28 07:14:19;;;;;;;9.77;7.60;;;;;;;14.92;71.37;94577.72;4986870;28;20026;-87
2022/09/28 07:16:44;;;;;;;12.75;6.90;;;;;;;14.85;72.34;94573.47;4986556;28;20023;-86
2022/09/28 07:19:10;;;;;;;22.10;8.25;;;;;;;14.90;72.48;94579.81;4971162;28;20058;-86
2022/09/28 07:21:35;;;;;;;19.35;8.30;;;;;;;15.10;72.02;94577.94;4969935;28;20038;-87
2022/09/28 07:24:01;;;;;;;32.67;10.18;;;;;;;15.33;71.08;94577.25;4987186;28;20034;-87
2022/09/28 07:26:27;;;;;;;27.48;10.05;;;;;;;15.53;69.84;94585.06;4986545;28;20026;-87
2022/09/28 07:28:54;;;;;;;16.35;9.57;;;;;;;15.63;70.28;94587.22;4970483;28;20054;-87
2022/09/28 07:31:20;;;;;;;13.80;8.15;;;;;;;15.74;69.89;94582.06;4970587;28;20532;-88
2022/09/28 07:33:48;;;;;;;15.52;7.70;;;;;;;15.93;68.63;94588.22;4970249;28;20034;-88
2022/09/28 07:36:16;;;;;;;13.35;6.35;;;;;;;16.04;69.17;94584.75;4971318;28;20027;-89
2022/09/28 07:38:42;;;;;;;15.63;7.93;;;;;;;16.13;68.52;94581.72;4970605;28;20031;-88
2022/09/28 07:41:11;;;;;;;27.65;9.55;;;;;;;16.30;67.98;94579.97;4987625;28;20413;-88
2022/09/28 07:43:38;;;;;;;19.10;8.40;;;;;;;16.39;68.76;94579.63;4970534;28;20023;-89
2022/09/28 07:46:08;;;;;;;18.67;7.75;;;;;;;16.48;68.68;94580.09;4986735;28;20035;-89
2022/09/28 07:48:36;;;;;;;18.23;9.50;;;;;;;16.64;69.11;94570.44;4971029;28;20121;-87
2022/09/28 07:51:02;;;;;;;11.73;7.10;;;;;;;16.79;69.04;94578.91;4987362;28;20498;-87
2022/09/28 07:53:28;;;;;;;12.80;7.60;;;;;;;16.96;68.68;94570.03;4986633;28;20040;-87
2022/09/28 07:55:55;;;;;;;11.57;7.32;;;;;;;17.15;67.81;94576.13;4969236;28;20031;-87
2022/09/28 07:58:21;;;;;;;10.25;7.55;;;;;;;17.37;68.04;94571.97;4986604;28;20032;-87
2022/09/28 08:00:47;;;;;;;13.65;6.88;;;;;;;17.49;66.75;94574.63;4985487;28;20023;-87
2022/09/28 08:03:15;;;;;;;12.48;6.10;;;;;;;17.51;65.52;94569.78;4970271;28;20457;-86
2022/09/28 08:05:41;;;;;;;12.48;6.63;;;;;;;17.60;64.00;94575.66;4953932;28;20109;-86
2022/09/28 08:08:07;;;;;;;10.85;6.63;;;;;;;17.65;64.33;94581.97;4970505;28;20053;-87
2022/09/28 08:10:32;;;;;;;14.65;7.70;;;;;;;17.55;64.99;94570.97;4986528;28;20032;-87
2022/09/28 08:13:01;;;;;;;11.98;7.55;;;;;;;17.55;65.04;94568.25;4953079;28;20402;-87
2022/09/28 08:15:27;;;;;;;12.20;7.40;;;;;;;17.64;65.01;94566.78;4986405;28;20288;-87
2022/09/28 08:17:52;;;;;;;9.30;5.53;;;;;;;17.72;61.76;94562.03;4985137;28;20508;-87
2022/09/28 08:23:06;;;;;;;10.38;7.75;;;;;;;17.84;63.26;94579.06;4973337;28;20037;-87
2022/09/28 08:25:31;;;;;;;11.63;7.82;;;;;;;17.83;62.33;94577.41;4985786;28;20026;-88
2022/09/28 08:27:56;;;;;;;11.48;7.90;;;;;;;17.44;64.10;94574.53;4985918;28;20049;-88
2022/09/28 08:30:22;;;;;;;9.07;5.80;;;;;;;17.51;62.82;94575.19;4984689;28;20050;-89
2022/09/28 08:32:48;;;;;;;11.48;6.15;;;;;;;17.46;63.44;94578.63;4970556;28;20026;-88
2022/09/28 08:35:14;;;;;;;12.38;6.68;;;;;;;17.56;63.57;94578.00;4969115;28;20033;-89
2022/09/28 08:37:39;;;;;;;9.60;5.95;;;;;;;17.50;64.10;94574.41;4970222;28;20042;-88
2022/09/28 08:40:07;;;;;;;12.27;6.72;;;;;;;17.46;65.46;94578.63;4969117;28;20030;-86
2022/09/28 08:42:34;;;;;;;24.52;7.25;;;;;;;17.64;63.83;94577.63;4953665;28;20041;-87
2022/09/28 08:45:14;;;;;;;13.60;6.20;;;;;;;17.66;63.80;94578.22;4985583;28;20030;-88
2022/09/28 08:50:55;;;;;;;15.75;6.47;;;;;;;17.55;64.99;94569.03;4987468;28;20516;-88
2022/09/28 08:53:34;;;;;;;17.73;6.55;;;;;;;17.60;64.58;94568.34;4953417;28;20491;-88
2022/09/28 08:56:02;;;;;;;17.30;7.95;;;;;;;17.66;65.75;94569.25;4954315;28;20022;-88
2022/09/28 08:58:31;;;;;;;20.73;6.97;;;;;;;17.74;65.21;94563.44;4970744;28;20038;-88
2022/09/28 09:00:57;;;;;;;22.85;6.90;;;;;;;17.92;64.71;94564.28;4973013;28;20030;-88
2022/09/28 09:03:38;;;;;;;23.15;7.43;;;;;;;18.18;64.50;94567.47;4990316;28;20453;-86
2022/09/28 09:06:26;;;;;;;18.92;6.38;;;;;;;18.31;63.61;94560.88;4973265;28;20607;-87
2022/09/28 09:09:06;;;;;;;16.75;6.05;;;;;;;18.18;64.22;94558.50;4988868;28;20405;-87
2022/09/28 09:11:50;;;;;;;21.90;6.43;;;;;;;17.85;64.72;94567.16;4957936;28;20117;-88
2022/09/28 09:14:41;;;;;;;16.52;4.93;;;;;;;18.02;63.88;94558.22;4988720;28;20117;-87
2022/09/28 09:17:46;;;;;;;17.15;4.88;;;;;;;18.40;63.96;94548.53;4989746;28;20032;-87
2022/09/28 09:20:19;;;;;;;11.82;5.45;;;;;;;18.70;63.54;94548.41;4976610;28;20042;-87
2022/09/28 09:22:58;;;;;;;12.93;4.75;;;;;;;18.94;62.90;94546.28;4988415;28;20037;-88
2022/09/28 09:25:41;;;;;;;7.43;4.25;;;;;;;19.14;61.89;94542.19;4974052;28;20482;-86
2022/09/28 09:28:15;;;;;;;12.48;4.53;;;;;;;19.28;60.97;94539.94;4989296;28;20120;-86
2022/09/28 09:30:54;;;;;;;14.15;4.35;;;;;;;19.45;60.29;94537.13;5005116;28;20552;-88
2022/09/28 09:33:41;;;;;;;24.48;5.65;;;;;;;19.68;59.96;94537.91;4991620;28;20105;-87
2022/09/28 09:36:21;;;;;;;23.35;5.07;;;;;;;19.69;57.79;94533.25;4988717;28;20529;-89
2022/09/28 09:38:49;;;;;;;11.90;4.60;;;;;;;19.59;57.65;94525.81;4974342;28;20026;-88
2022/09/28 09:41:18;;;;;;;9.45;4.05;;;;;;;19.51;57.60;94527.09;4989029;28;20375;-88
2022/09/28 09:44:10;;;;;;;11.90;4.53;;;;;;;19.58;58.53;94526.91;4988547;28;20029;-88
2022/09/28 09:46:52;;;;;;;6.22;3.75;;;;;;;19.55;57.75;94528.25;4989834;28;20034;-87
2022/09/28 09:49:25;;;;;;;8.90;4.03;;;;;;;19.58;57.73;94524.19;4988599;28;20030;-88
2022/09/28 09:52:00;;;;;;;10.38;3.63;;;;;;;19.62;56.37;94523.41;4972437;28;20112;-88
2022/09/28 09:54:36;;;;;;;9.77;3.53;;;;;;;19.63;56.76;94524.25;4973144;28;20030;-88
2022/09/28 09:57:07;;;;;;;8.82;3.75;;;;;;;19.68;56.26;94523.47;4987851;28;20033;-87
2022/09/28 09:59:35;;;;;;;9.20;3.22;;;;;;;19.61;56.10;94529.13;4957311;28;20073;-87
2022/09/28 10:02:21;;;;;;;10.65;3.45;;;;;;;19.81;54.99;94528.50;4972145;28;20043;-88
2022/09/28 10:04:47;;;;;;;7.47;3.47;;;;;;;19.72;57.22;94532.75;4990777;28;20045;-88
2022/09/28 10:07:51;;;;;;;9.10;3.13;;;;;;;19.92;55.78;94520.41;4973124;28;20086;-89
2022/09/28 10:10:35;;;;;;;13.63;3.60;;;;;;;19.99;55.17;94516.41;4989474;28;20113;-87
2022/09/28 10:13:01;;;;;;;7.53;3.50;;;;;;;19.97;55.05;94517.75;4974660;28;20062;-87
2022/09/28 10:15:30;;;;;;;13.40;3.85;;;;;;;19.85;54.80;94516.00;4956317;28;20027;-88
2022/09/28 10:17:58;;;;;;;10.23;3.83;;;;;;;20.03;54.85;94514.03;4956591;28;20524;-88
2022/09/28 10:20:24;;;;;;;9.05;3.28;;;;;;;20.03;56.15;94510.47;4988319;28;20460;-88
2022/09/28 10:22:50;;;;;;;12.40;3.90;;;;;;;20.10;55.25;94503.72;4971467;28;20030;-87
2022/09/28 10:25:15;;;;;;;19.92;4.55;;;;;;;20.21;54.15;94507.38;4972973;28;20026;-88
2022/09/28 10:27:45;;;;;;;18.38;3.92;;;;;;;20.17;54.81;94499.97;4955317;28;20473;-88
2022/09/28 10:30:15;;;;;;;31.45;5.45;;;;;;;20.16;56.55;94499.16;4956812;28;20046;-87
2022/09/28 10:32:45;;;;;;;15.43;3.45;;;;;;;20.26;53.31;94501.13;4971712;28;20505;-87
2022/09/28 10:35:22;;;;;;;19.42;3.80;;;;;;;20.23;53.18;94496.22;4972348;28;20038;-88
2022/09/28 10:38:04;;;;;;;15.98;3.60;;;;;;;20.19;55.42;94495.91;4988678;28;20034;-88
2022/09/28 10:40:32;;;;;;;11.98;3.22;;;;;;;20.28;54.86;94492.69;4987627;28;20030;-88
2022/09/28 10:43:02;;;;;;;8.00;3.10;;;;;;;20.22;55.75;94491.84;4990156;28;20478;-90
2022/09/28 10:45:36;;;;;;;8.73;3.78;;;;;;;20.12;56.35;94485.22;4955239;28;20121;-88
2022/09/28 10:48:03;;;;;;;7.65;2.83;;;;;;;20.19;54.52;94492.34;4972456;28;20038;-87
2022/09/28 10:50:29;;;;;;;9.82;2.72;;;;;;;20.16;54.72;94498.31;4971966;28;20030;-88
2022/09/28 10:53:10;;;;;;;10.35;2.95;;;;;;;20.22;53.22;94483.66;4971554;28;20092;-88
2022/09/28 10:55:36;;;;;;;7.63;2.60;;;;;;;20.40;54.68;94470.72;4988749;28;20026;-88
2022/09/28 10:58:22;;;;;;;9.00;2.90;;;;;;;19.98;55.16;94478.56;4970198;28;20027;-87
2022/09/28 11:00:48;;;;;;;6.38;3.17;;;;;;;19.97;55.54;94479.66;4956584;28;20058;-89
2022/09/28 11:03:23;;;;;;;10.63;3.22;;;;;;;20.03;55.50;94481.38;4954944;28;20120;-86
2022/09/28 11:06:00;;;;;;;5.72;2.22;;;;;;;20.45;53.28;94457.97;4955381;28;20052;-87
2022/09/28 11:08:36;;;;;;;3.95;1.80;;;;;;;20.60;51.29;94462.66;4972369;28;20095;-87
2022/09/28 11:11:12;;;;;;;7.68;1.85;;;;;;;20.85;51.38;94458.41;4971803;28;20113;-88
2022/09/28 11:13:40;;;;;;;5.85;0.85;;;;;;;21.01;45.36;94449.53;4972472;28;20106;-87
2022/09/28 11:16:05;;;;;;;4.13;1.00;;;;;;;20.90;45.74;94448.59;4970988;28;20112;-86
2022/09/28 11:18:31;;;;;;;6.40;1.20;;;;;;;21.01;45.94;94450.31;4988478;28;20466;-87
2022/09/28 11:21:07;;;;;;;4.07;1.25;;;;;;;21.20;44.41;94449.84;4987022;28;20031;-87
2022/09/28 11:23:32;;;;;;;4.90;1.00;;;;;;;21.28;43.46;94437.59;4987782;28;20030;-87
2022/09/28 11:26:04;;;;;;;3.13;1.05;;;;;;;21.24;43.47;94432.69;4983117;28;20429;-87
2022/09/28 11:28:34;;;;;;;3.23;1.00;;;;;;;21.29;44.28;94426.41;4966844;28;20034;-88
2022/09/28 11:31:00;;;;;;;4.20;1.30;;;;;;;21.44;46.63;94432.97;4966776;28;20620;-86
2022/09/28 11:33:29;;;;;;;5.43;1.80;;;;;;;21.42;45.62;94425.06;4953427;28;20118;-86
2022/09/28 11:36:07;;;;;;;4.70;1.30;;;;;;;21.60;42.88;94429.16;4972601;28;20022;-86
2022/09/28 11:38:52;;;;;;;6.65;1.60;;;;;;;21.66;43.21;94426.44;4984467;28;20030;-88
2022/09/28 11:41:56;;;;;;;3.38;1.40;;;;;;;21.77;42.81;94414.47;4969843;28;20690;-87
2022/09/28 11:44:43;;;;;;;3.80;1.25;;;;;;;21.94;43.08;94419.63;4987974;28;20030;-87
2022/09/28 11:47:31;;;;;;;3.60;1.83;;;;;;;21.78;44.43;94413.38;4988238;28;20032;-88
2022/09/28 11:50:07;;;;;;;4.20;1.17;;;;;;;21.66;43.63;94421.81;4971997;28;20033;-87
2022/09/28 11:52:40;;;;;;;4.32;1.40;;;;;;;21.41;42.89;94412.50;4987098;28;20033;-87
2022/09/28 11:55:40;;;;;;;4.07;1.30;;;;;;;21.25;44.11;94414.38;4986407;28;20093;-86